createdAt,value
2022-11-12T00:01:28.055Z,146.02
2022-11-12T00:06:29.441Z,72.47
2022-11-12T00:11:30.954Z,130.45
2022-11-12T00:16:32.337Z,71.75
2022-11-12T00:21:33.677Z,118.43
2022-11-12T00:26:35.079Z,109.30
2022-11-12T00:31:37.115Z,248.23
2022-11-12T00:36:38.479Z,73.32
2022-11-12T00:41:39.822Z,62.70
2022-11-12T00:46:41.202Z,138.63
2022-11-12T00:51:43.096Z,108.05
2022-11-12T00:56:46.348Z,139.73
2022-11-12T01:01:47.818Z,103.00
2022-11-12T01:06:49.267Z,51.83
2022-11-12T01:11:50.745Z,54.28
2022-11-12T01:16:52.219Z,55.22
2022-11-12T01:21:53.601Z,44.45
2022-11-12T01:26:54.969Z,57.67
2022-11-12T01:31:56.417Z,79.28
2022-11-12T01:36:58.006Z,66.10
2022-11-12T01:41:59.400Z,80.85
2022-11-12T01:47:14.593Z,120.47
2022-11-12T01:52:22.293Z,143.32
2022-11-12T01:57:31.949Z,138.68
2022-11-12T02:02:37.238Z,141.18
2022-11-12T02:07:42.940Z,178.77
2022-11-12T02:13:03.549Z,140.25
2022-11-12T02:18:05.779Z,162.30
2022-11-12T02:23:08.359Z,304.20
2022-11-12T02:28:09.741Z,237.60
2022-11-12T02:33:11.104Z,323.40
2022-11-12T02:38:12.503Z,113.88
2022-11-12T02:43:13.854Z,93.55
2022-11-12T02:48:24.853Z,344.30
2022-11-12T02:53:26.289Z,153.43
2022-11-12T02:58:29.235Z,74.90
2022-11-12T03:03:30.720Z,205.40
2022-11-12T03:08:32.064Z,288.08
2022-11-12T03:13:33.392Z,169.85
2022-11-12T03:18:34.790Z,262.70
2022-11-12T03:23:36.175Z,116.70
2022-11-12T03:28:37.579Z,179.27
2022-11-12T03:33:39.042Z,97.32
2022-11-12T03:38:40.437Z,132.00
2022-11-12T03:43:41.768Z,126.20
2022-11-12T03:48:43.476Z,118.15
2022-11-12T03:53:44.837Z,52.05
2022-11-12T03:58:46.194Z,85.13
2022-11-12T04:03:47.624Z,96.32
2022-11-12T04:08:48.958Z,88.57
2022-11-12T04:13:50.275Z,64.25
2022-11-12T04:19:12.408Z,59.25
2022-11-12T04:24:33.760Z,67.10
2022-11-12T04:29:53.527Z,37.97
2022-11-12T04:34:55.557Z,25.65
2022-11-12T04:40:16.914Z,48.67
2022-11-12T04:45:18.340Z,88.63
2022-11-12T04:50:19.712Z,70.40
2022-11-12T04:55:21.064Z,54.53
2022-11-12T05:00:22.440Z,59.28
2022-11-12T05:05:23.951Z,62.42
2022-11-12T05:10:25.337Z,45.97
2022-11-12T05:15:26.765Z,48.00
2022-11-12T05:20:28.126Z,41.15
2022-11-12T05:25:29.487Z,47.83
2022-11-12T05:30:30.818Z,49.58
2022-11-12T05:35:32.167Z,71.40
2022-11-12T05:40:33.519Z,71.90
2022-11-12T05:45:34.878Z,73.90
2022-11-12T05:50:51.271Z,50.47
2022-11-12T05:56:02.170Z,33.88
2022-11-12T06:01:03.641Z,28.15
2022-11-12T06:06:05.106Z,23.95
2022-11-12T06:11:06.450Z,48.38
2022-11-12T06:16:08.499Z,36.15
2022-11-12T06:21:20.371Z,72.10
2022-11-12T06:26:22.975Z,139.93
2022-11-12T06:31:24.377Z,71.13
2022-11-12T06:36:25.741Z,47.13
2022-11-12T06:41:27.073Z,47.88
2022-11-12T06:46:28.412Z,30.70
2022-11-12T06:51:29.781Z,34.33
2022-11-12T06:56:31.238Z,27.35
2022-11-12T07:01:32.827Z,24.85
2022-11-12T07:06:34.393Z,23.92
2022-11-12T07:11:35.791Z,25.38
2022-11-12T07:16:37.241Z,26.40
2022-11-12T07:21:39.302Z,25.85
2022-11-12T07:26:46.065Z,22.05
2022-11-12T07:31:48.717Z,36.78
2022-11-12T07:36:51.777Z,20.20
2022-11-12T07:41:53.189Z,17.23
2022-11-12T07:46:54.520Z,25.63
2022-11-12T07:51:55.883Z,20.00
2022-11-12T07:56:57.345Z,26.80
2022-11-12T08:01:58.722Z,28.35
2022-11-12T08:07:00.217Z,15.65
2022-11-12T08:12:01.677Z,22.20
2022-11-12T08:17:03.078Z,17.15
2022-11-12T08:22:04.982Z,19.77
2022-11-12T08:27:06.363Z,20.02
2022-11-12T08:32:07.706Z,14.32
2022-11-12T08:37:09.176Z,17.60
2022-11-12T08:42:10.519Z,26.88
2022-11-12T08:47:11.960Z,38.90
2022-11-12T08:52:13.287Z,15.73
2022-11-12T08:57:14.617Z,19.42
2022-11-12T09:02:15.962Z,15.82
2022-11-12T09:07:43.221Z,15.65
2022-11-12T09:12:38.664Z,19.15
2022-11-12T09:17:39.994Z,23.83
2022-11-12T09:22:41.343Z,37.90
2022-11-12T09:27:48.146Z,15.73
2022-11-12T09:32:49.896Z,20.00
2022-11-12T09:37:51.246Z,59.00
2022-11-12T09:42:53.466Z,48.60
2022-11-12T09:48:00.476Z,24.58
2022-11-12T09:53:16.862Z,45.05
2022-11-12T09:58:19.555Z,55.47
2022-11-12T10:03:34.682Z,17.48
2022-11-12T10:08:52.248Z,31.58
2022-11-12T10:14:00.871Z,28.42
2022-11-12T10:19:12.647Z,17.83
2022-11-12T10:24:14.004Z,16.83
2022-11-12T10:29:30.548Z,17.70
2022-11-12T10:34:31.904Z,24.65
2022-11-12T10:39:37.692Z,11.73
2022-11-12T10:44:40.097Z,12.45
2022-11-12T10:49:41.472Z,13.70
2022-11-12T10:54:42.885Z,16.35
2022-11-12T10:59:44.260Z,15.18
2022-11-12T11:04:46.524Z,20.08
2022-11-12T11:10:00.219Z,22.10
2022-11-12T11:15:09.254Z,21.92
2022-11-12T11:20:25.631Z,20.48
2022-11-12T11:25:28.397Z,21.55
2022-11-12T11:30:30.097Z,27.10
2022-11-12T11:35:53.992Z,24.25
2022-11-12T11:41:04.554Z,26.38
2022-11-12T11:46:24.529Z,22.00
2022-11-12T11:51:46.328Z,25.33
2022-11-12T11:56:49.680Z,23.58
2022-11-12T12:02:22.466Z,30.55
2022-11-12T12:07:43.552Z,26.00
2022-11-12T12:13:03.547Z,23.80
2022-11-12T12:18:30.351Z,23.98
2022-11-12T12:23:44.191Z,23.05
2022-11-12T12:29:03.974Z,24.90
2022-11-12T12:34:19.072Z,21.05
2022-11-12T12:39:37.697Z,26.85
2022-11-12T12:45:07.872Z,25.50
2022-11-12T12:50:15.337Z,26.13
2022-11-12T13:00:41.597Z,28.58
2022-11-12T13:05:43.074Z,24.35
2022-11-12T13:10:45.174Z,22.02
2022-11-12T13:15:52.724Z,28.85
2022-11-12T13:26:58.005Z,25.17
2022-11-12T13:32:44.205Z,28.17
2022-11-12T13:37:51.757Z,25.58
2022-11-12T13:47:54.603Z,25.52
2022-11-12T13:52:56.332Z,26.35
2022-11-12T13:57:57.888Z,26.65
2022-11-12T14:03:06.112Z,25.35
2022-11-12T14:08:28.225Z,24.67
2022-11-12T14:13:44.573Z,20.17
2022-11-12T14:19:23.004Z,19.35
2022-11-12T14:24:24.524Z,16.73
2022-11-12T14:29:29.941Z,16.17
2022-11-12T14:34:34.868Z,15.70
2022-11-12T14:39:43.548Z,14.18
2022-11-12T14:44:45.050Z,14.55
2022-11-12T14:49:49.039Z,15.35
2022-11-12T14:54:54.817Z,14.65
2022-11-12T14:59:57.043Z,15.32
2022-11-12T15:05:11.156Z,16.27
2022-11-12T15:10:43.161Z,15.90
2022-11-12T15:15:54.983Z,14.45
2022-11-12T15:21:05.741Z,14.55
2022-11-12T15:26:14.692Z,18.65
2022-11-12T15:31:21.707Z,15.63
2022-11-12T15:36:24.474Z,16.42
2022-11-12T15:41:29.374Z,19.55
2022-11-12T15:46:31.468Z,23.73
2022-11-12T15:51:32.811Z,36.58
2022-11-12T15:56:34.185Z,24.35
2022-11-12T16:01:35.574Z,24.77
2022-11-12T16:06:37.044Z,30.23
2022-11-12T16:11:38.932Z,79.78
2022-11-12T16:16:40.357Z,89.40
2022-11-12T16:21:41.719Z,86.55
2022-11-12T16:26:43.296Z,44.22
2022-11-12T16:31:44.840Z,26.77
2022-11-12T16:36:47.371Z,67.60
2022-11-12T16:41:48.744Z,46.35
2022-11-12T16:46:50.101Z,78.15
2022-11-12T16:51:51.460Z,65.15
2022-11-12T16:56:52.803Z,50.67
2022-11-12T17:01:54.202Z,40.33
2022-11-12T17:06:55.608Z,32.65
2022-11-12T17:11:57.033Z,54.78
2022-11-12T17:16:58.394Z,49.53
2022-11-12T17:21:59.739Z,50.30
2022-11-12T17:27:01.484Z,108.68
2022-11-12T17:32:03.313Z,43.00
2022-11-12T17:37:04.680Z,34.75
2022-11-12T17:42:06.054Z,23.42
2022-11-12T17:47:07.574Z,46.90
2022-11-12T17:52:09.006Z,75.93
2022-11-12T17:57:10.369Z,70.43
2022-11-12T18:02:12.409Z,78.30
2022-11-12T18:07:13.823Z,50.92
2022-11-12T18:12:15.281Z,50.00
2022-11-12T18:17:16.710Z,35.80
2022-11-12T18:22:20.510Z,61.08
2022-11-12T18:27:21.889Z,56.55
2022-11-12T18:32:23.257Z,53.60
2022-11-12T18:37:24.605Z,68.25
2022-11-12T18:42:25.961Z,56.97
2022-11-12T18:47:29.563Z,53.75
2022-11-12T18:52:30.934Z,45.75
2022-11-12T18:57:32.282Z,30.42
2022-11-12T19:02:33.626Z,71.70
2022-11-12T19:07:35.145Z,29.67
2022-11-12T19:12:36.897Z,56.55
2022-11-12T19:17:38.263Z,60.47
2022-11-12T19:22:39.613Z,41.85
2022-11-12T19:27:40.965Z,50.88
2022-11-12T19:32:42.638Z,29.00
2022-11-12T19:37:44.345Z,62.45
2022-11-12T19:42:47.622Z,56.65
2022-11-12T19:47:50.782Z,90.55
2022-11-12T19:52:55.449Z,70.55
2022-11-12T19:57:56.807Z,63.63
2022-11-12T20:02:59.037Z,52.58
2022-11-12T20:08:00.387Z,60.30
2022-11-12T20:13:03.206Z,52.92
2022-11-12T20:18:04.773Z,36.55
2022-11-12T20:23:06.237Z,47.83
2022-11-12T20:28:08.469Z,50.95
2022-11-12T20:33:12.215Z,69.25
2022-11-12T20:38:14.591Z,45.35
2022-11-12T20:43:15.969Z,47.88
2022-11-12T20:48:17.393Z,74.35
2022-11-12T20:53:18.806Z,35.53
2022-11-12T20:58:20.145Z,67.25
2022-11-12T21:03:21.537Z,39.35
2022-11-12T21:08:22.918Z,25.42
2022-11-12T21:13:24.896Z,82.28
2022-11-12T21:18:27.459Z,56.90
2022-11-12T21:23:33.908Z,74.65
2022-11-12T21:28:38.121Z,67.00
2022-11-12T21:33:39.596Z,92.65
2022-11-12T21:38:41.482Z,98.47
2022-11-12T21:43:44.661Z,65.03
2022-11-12T21:48:49.930Z,104.05
2022-11-12T21:53:55.929Z,60.65
2022-11-12T21:59:00.161Z,51.35
2022-11-12T22:04:05.311Z,24.42
2022-11-12T22:09:06.828Z,125.40
2022-11-12T22:14:08.346Z,38.83
2022-11-12T22:19:11.192Z,102.82
2022-11-12T22:24:12.664Z,77.65
2022-11-12T22:29:13.993Z,168.82
2022-11-12T22:34:15.474Z,67.78
2022-11-12T22:39:16.878Z,48.10
2022-11-12T22:44:18.823Z,79.00
2022-11-12T22:49:20.181Z,58.65
2022-11-12T22:54:21.513Z,40.42
2022-11-12T22:59:23.020Z,198.88
2022-11-12T23:04:24.364Z,67.78
2022-11-12T23:09:25.759Z,75.65
2022-11-12T23:14:27.254Z,63.47
2022-11-12T23:19:28.693Z,67.25
2022-11-12T23:24:30.066Z,50.47
2022-11-12T23:29:31.504Z,66.30
2022-11-12T23:34:32.922Z,37.60
2022-11-12T23:39:34.252Z,69.18
2022-11-12T23:44:35.648Z,94.97
2022-11-12T23:49:37.053Z,72.15
2022-11-12T23:54:38.402Z,63.03
2022-11-12T23:59:39.777Z,33.40
